Terminal Aerodrome Forecast
Issued by NWS

Home | Current Version | Previous Version | Text Only | Print | Product List | Glossary On
Versions: 1 2 3 4 5 6 7 8 9 10 11 12 13 14 15 16 17 18 19 20 21 22 23 24
000
FTUS44 KMAF 291219 AAA
TAFHOB
TAF AMD
KHOB 291219Z 2912/3012 35018G26KT P6SM SCT020 BKN200
      TEMPO 2912/2916 BKN015
     FM291600 35011G20KT P6SM SCT035 BKN090
     FM292300 32019G27KT P6SM SCT040 BKN070=

USA.gov is the U.S. government's official web portal to all federal, state and local government web resources and services.